CYZF

Yellowknife Airport

ICAO Code CYZF
IATA Code YZF
Name Yellowknife Airport
Location Yellowknife, Northwest-Territories, CA
Elevation 675 Feet / 205.7 Meters
Latitude 62.46279907
Longitude -114.44000244
METAR CYZF 240500Z 06007KT 15SM FEW240 M30/M33 A3029 RMK CI1 CI TR SLP294
Extra information Display Charts and CFS
Display NOTAMS
Runway Length Width Surface Elevation
10 5000 ft 150 ft ASP 672 ft
16 7500 ft 150 ft ASP 674 ft
28 5000 ft 150 ft ASP 675 ft
34 7500 ft 150 ft ASP 658 ft